Time;durP1;ratioP1;P1;durP2;ratioP2;P2;SDS_P1;SDS_P2;PMS_P1;PMS_P2;Temp;Humidity;BMP_temperature;BMP_pressure;BME280_temperature;BME280_humidity;BME280_pressure;Samples;Min_cycle;Max_cycle;Signal;HPM_P1;HPM_P2
2022/05/31 00:01:56;;;;;;;15.73;4.90;;;;;;;;;;5053226;28;20443;-68
2022/05/31 00:04:23;;;;;;;16.03;3.87;;;;;;;;;;5053168;28;20450;-69
2022/05/31 00:06:51;;;;;;;16.17;3.40;;;;;;;;;;5053407;28;20440;-68
2022/05/31 00:09:20;;;;;;;20.37;4.20;;;;;;;;;;5053171;28;20537;-68
2022/05/31 00:11:48;;;;;;;16.80;4.93;;;;;;;;;;5052859;28;20467;-69
2022/05/31 00:14:16;;;;;;;16.90;4.40;;;;;;;;;;5052861;28;20484;-68
2022/05/31 00:16:45;;;;;;;17.13;5.00;;;;;;;;;;5053036;28;20821;-68
2022/05/31 00:19:13;;;;;;;18.33;4.40;;;;;;;;;;5052626;28;20443;-68
2022/05/31 00:21:42;;;;;;;15.13;3.77;;;;;;;;;;5053146;28;20436;-68
2022/05/31 00:24:10;;;;;;;14.93;3.93;;;;;;;;;;5053075;28;20491;-68
2022/05/31 00:26:40;;;;;;;15.97;4.77;;;;;;;;;;5053094;28;20440;-68
2022/05/31 00:29:07;;;;;;;17.83;4.33;;;;;;;;;;5052478;28;20448;-68
2022/05/31 00:31:35;;;;;;;25.20;5.60;;;;;;;;;;5052704;28;20448;-68
2022/05/31 00:34:03;;;;;;;17.03;4.77;;;;;;;;;;5052546;28;20524;-68
2022/05/31 00:36:30;;;;;;;20.67;4.60;;;;;;;;;;5052779;28;20439;-68
2022/05/31 00:38:58;;;;;;;15.80;4.60;;;;;;;;;;5052499;28;20949;-68
2022/05/31 00:41:26;;;;;;;17.33;4.13;;;;;;;;;;5052562;28;20436;-68
2022/05/31 00:43:59;;;;;;;14.37;3.37;;;;;;;;;;5052460;28;20454;-68
2022/05/31 00:46:29;;;;;;;16.60;4.00;;;;;;;;;;5052816;28;20470;-68
2022/05/31 00:48:57;;;;;;;17.30;4.17;;;;;;;;;;5052384;28;20432;-68
2022/05/31 00:51:25;;;;;;;19.47;4.43;;;;;;;;;;5052468;28;20443;-68
2022/05/31 00:53:56;;;;;;;14.50;4.00;;;;;;;;;;5052273;28;20493;-68
2022/05/31 00:56:24;;;;;;;28.03;5.30;;;;;;;;;;5052252;28;20948;-68
2022/05/31 00:58:54;;;;;;;15.80;4.37;;;;;;;;;;5052452;28;20514;-68
2022/05/31 01:01:25;;;;;;;27.60;5.07;;;;;;;;;;5052556;28;20447;-68
2022/05/31 01:03:52;;;;;;;17.73;4.20;;;;;;;;;;5052274;28;20450;-68
2022/05/31 01:06:20;;;;;;;16.60;4.20;;;;;;;;;;5052274;28;20846;-68
2022/05/31 01:08:47;;;;;;;16.60;4.73;;;;;;;;;;5052054;28;20450;-68
2022/05/31 01:11:16;;;;;;;14.93;4.37;;;;;;;;;;5051498;28;20450;-68
2022/05/31 01:13:43;;;;;;;16.00;4.47;;;;;;;;;;5051582;28;20480;-68
2022/05/31 01:16:15;;;;;;;20.10;5.03;;;;;;;;;;5051985;28;20454;-68
2022/05/31 01:18:44;;;;;;;15.53;4.67;;;;;;;;;;5051984;28;20447;-68
2022/05/31 01:21:13;;;;;;;15.63;4.43;;;;;;;;;;5051724;28;20443;-69
2022/05/31 01:23:43;;;;;;;22.17;4.00;;;;;;;;;;5051851;28;20487;-69
2022/05/31 01:26:14;;;;;;;19.03;5.00;;;;;;;;;;5051833;28;20483;-68
2022/05/31 01:28:51;;;;;;;16.17;4.53;;;;;;;;;;5052283;28;20523;-68
2022/05/31 01:31:20;;;;;;;18.63;5.37;;;;;;;;;;5051979;28;20440;-68
2022/05/31 01:33:51;;;;;;;15.80;4.03;;;;;;;;;;5051693;28;21008;-68
2022/05/31 01:36:22;;;;;;;19.83;3.87;;;;;;;;;;5051762;28;20435;-68
2022/05/31 01:38:51;;;;;;;21.80;4.80;;;;;;;;;;5051748;28;20449;-68
2022/05/31 01:41:21;;;;;;;15.07;3.73;;;;;;;;;;5051728;28;20439;-68
2022/05/31 01:43:49;;;;;;;16.37;4.77;;;;;;;;;;5051664;28;20444;-68
2022/05/31 01:46:19;;;;;;;22.07;4.13;;;;;;;;;;5051712;28;20462;-68
2022/05/31 01:48:46;;;;;;;16.60;4.43;;;;;;;;;;5051735;28;20433;-68
2022/05/31 01:51:15;;;;;;;27.27;5.60;;;;;;;;;;5051659;28;20448;-67
2022/05/31 01:53:43;;;;;;;22.77;5.40;;;;;;;;;;5051624;28;20486;-67
2022/05/31 01:56:12;;;;;;;16.90;4.33;;;;;;;;;;5051635;28;20448;-68
2022/05/31 01:58:41;;;;;;;26.60;4.67;;;;;;;;;;5051520;28;20968;-68
2022/05/31 02:01:10;;;;;;;23.10;4.73;;;;;;;;;;5051247;28;20445;-68
2022/05/31 02:03:40;;;;;;;17.47;4.17;;;;;;;;;;5052283;28;20449;-68
2022/05/31 02:06:24;;;;;;;21.93;4.90;;;;;;;;;;5051656;28;20459;-68
2022/05/31 02:08:53;;;;;;;16.10;4.07;;;;;;;;;;5051749;28;20478;-68
2022/05/31 02:11:20;;;;;;;17.43;4.77;;;;;;;;;;5051712;28;20444;-68
2022/05/31 02:13:48;;;;;;;15.03;4.40;;;;;;;;;;5051178;28;20478;-68
2022/05/31 02:16:15;;;;;;;19.43;3.87;;;;;;;;;;5051411;28;20959;-68
2022/05/31 02:21:35;;;;;;;15.67;4.57;;;;;;;;;;5051587;28;20512;-68
2022/05/31 02:24:05;;;;;;;15.17;4.20;;;;;;;;;;5054791;28;20525;-68
2022/05/31 02:26:33;;;;;;;15.03;3.90;;;;;;;;;;5055439;28;20444;-68
2022/05/31 02:29:00;;;;;;;14.97;3.77;;;;;;;;;;5054876;28;20454;-68
2022/05/31 02:31:28;;;;;;;15.47;4.27;;;;;;;;;;5055190;28;20523;-68
2022/05/31 02:33:55;;;;;;;17.43;5.43;;;;;;;;;;5054913;28;20569;-68
2022/05/31 02:36:23;;;;;;;17.47;4.63;;;;;;;;;;5054882;28;20439;-68
2022/05/31 02:38:50;;;;;;;19.20;3.60;;;;;;;;;;5055127;28;20437;-68
2022/05/31 02:41:19;;;;;;;16.27;5.20;;;;;;;;;;5055116;28;20532;-68
2022/05/31 02:43:47;;;;;;;14.57;4.03;;;;;;;;;;5054958;28;20449;-67
2022/05/31 02:46:14;;;;;;;18.33;3.90;;;;;;;;;;5054734;28;20454;-68
2022/05/31 02:48:42;;;;;;;16.00;4.50;;;;;;;;;;5054743;28;20448;-67
2022/05/31 02:51:09;;;;;;;21.83;5.00;;;;;;;;;;5054294;28;20526;-68
2022/05/31 02:53:37;;;;;;;18.73;4.70;;;;;;;;;;5054787;28;20450;-68
2022/05/31 02:56:05;;;;;;;19.17;4.50;;;;;;;;;;5054680;28;20446;-68
2022/05/31 02:58:34;;;;;;;25.33;4.90;;;;;;;;;;5054575;28;20960;-68
2022/05/31 03:01:02;;;;;;;22.13;5.00;;;;;;;;;;5054344;28;20454;-67
2022/05/31 03:03:30;;;;;;;20.63;4.40;;;;;;;;;;5054352;28;20956;-68
2022/05/31 03:05:57;;;;;;;15.70;3.73;;;;;;;;;;5054750;28;20821;-68
2022/05/31 03:08:24;;;;;;;18.63;4.60;;;;;;;;;;5054387;28;20786;-68
2022/05/31 03:10:54;;;;;;;22.13;5.03;;;;;;;;;;5054700;28;20824;-68
2022/05/31 03:13:22;;;;;;;14.83;4.10;;;;;;;;;;5054297;28;20462;-69
2022/05/31 03:15:54;;;;;;;18.17;4.93;;;;;;;;;;5054175;28;20573;-68
2022/05/31 03:18:23;;;;;;;17.13;5.20;;;;;;;;;;5054161;28;20856;-68
2022/05/31 03:20:52;;;;;;;17.80;4.57;;;;;;;;;;5054168;28;20445;-68
2022/05/31 03:23:21;;;;;;;22.00;4.63;;;;;;;;;;5053947;28;20482;-68
2022/05/31 03:25:49;;;;;;;20.73;5.20;;;;;;;;;;5053978;28;20454;-68
2022/05/31 03:28:17;;;;;;;15.27;4.67;;;;;;;;;;5053927;28;20444;-68
2022/05/31 03:30:44;;;;;;;16.10;5.57;;;;;;;;;;5053846;28;20447;-68
2022/05/31 03:33:14;;;;;;;14.77;4.50;;;;;;;;;;5053248;28;20459;-68
2022/05/31 03:35:42;;;;;;;14.30;4.50;;;;;;;;;;5053992;28;20502;-68
2022/05/31 03:38:09;;;;;;;14.80;4.70;;;;;;;;;;5054296;28;20803;-68
2022/05/31 03:43:22;;;;;;;19.90;5.57;;;;;;;;;;5053859;28;20455;-68
2022/05/31 03:45:49;;;;;;;16.07;4.50;;;;;;;;;;5053584;28;20444;-68
2022/05/31 03:48:19;;;;;;;17.37;5.13;;;;;;;;;;5053718;28;20452;-68
2022/05/31 03:50:47;;;;;;;15.67;4.30;;;;;;;;;;5053515;28;20450;-68
2022/05/31 03:53:15;;;;;;;17.20;4.47;;;;;;;;;;5053318;28;20450;-69
2022/05/31 03:55:44;;;;;;;26.13;6.13;;;;;;;;;;5053459;28;20480;-68
2022/05/31 03:58:11;;;;;;;18.40;4.90;;;;;;;;;;5053385;28;20428;-68
2022/05/31 04:00:39;;;;;;;14.60;3.90;;;;;;;;;;5053576;28;20440;-68
2022/05/31 04:03:06;;;;;;;15.00;4.33;;;;;;;;;;5053186;28;20833;-69
2022/05/31 04:05:36;;;;;;;13.90;3.80;;;;;;;;;;5053311;28;20444;-69
2022/05/31 04:08:04;;;;;;;18.07;4.10;;;;;;;;;;5053269;28;20813;-68
2022/05/31 04:10:32;;;;;;;16.00;5.70;;;;;;;;;;5053097;28;20454;-69
2022/05/31 04:13:00;;;;;;;15.57;3.50;;;;;;;;;;5052714;28;21017;-69
2022/05/31 04:15:27;;;;;;;14.50;3.57;;;;;;;;;;5053018;28;20487;-69
2022/05/31 04:17:55;;;;;;;13.20;3.10;;;;;;;;;;5053184;28;20440;-69
2022/05/31 04:20:22;;;;;;;13.40;3.93;;;;;;;;;;5052926;28;20448;-69
2022/05/31 04:22:51;;;;;;;13.53;3.50;;;;;;;;;;5052679;28;20492;-68
2022/05/31 04:25:39;;;;;;;12.83;3.17;;;;;;;;;;5052876;28;20452;-69
2022/05/31 04:28:06;;;;;;;15.53;3.43;;;;;;;;;;5052834;28;20448;-69
2022/05/31 04:30:34;;;;;;;13.50;3.43;;;;;;;;;;5052702;28;21012;-69
2022/05/31 04:33:01;;;;;;;13.23;3.03;;;;;;;;;;5052369;28;20952;-69
2022/05/31 04:35:29;;;;;;;13.20;2.90;;;;;;;;;;5052585;28;20477;-69
2022/05/31 04:37:58;;;;;;;13.90;3.10;;;;;;;;;;5052851;28;20449;-69
2022/05/31 04:40:26;;;;;;;14.40;3.40;;;;;;;;;;5052969;28;20446;-70
2022/05/31 04:42:54;;;;;;;15.23;3.43;;;;;;;;;;5052513;28;20820;-69
2022/05/31 04:45:21;;;;;;;13.70;3.20;;;;;;;;;;5052012;28;20513;-69
2022/05/31 04:47:49;;;;;;;15.00;3.90;;;;;;;;;;5052430;28;20446;-69
2022/05/31 04:50:16;;;;;;;14.73;3.20;;;;;;;;;;5052596;28;20458;-70
2022/05/31 04:52:44;;;;;;;14.53;3.30;;;;;;;;;;5052576;28;20447;-69
2022/05/31 04:55:13;;;;;;;14.20;3.23;;;;;;;;;;5052022;28;20579;-69
2022/05/31 04:57:40;;;;;;;13.40;3.13;;;;;;;;;;5052591;28;20829;-69
2022/05/31 05:00:08;;;;;;;16.33;3.50;;;;;;;;;;5052278;28;20443;-69
2022/05/31 05:02:36;;;;;;;13.23;3.20;;;;;;;;;;5052433;28;20438;-69
2022/05/31 05:05:03;;;;;;;14.90;3.70;;;;;;;;;;5052033;28;20960;-70
2022/05/31 05:07:31;;;;;;;14.43;3.70;;;;;;;;;;5052326;28;20439;-70
2022/05/31 05:09:59;;;;;;;14.00;3.23;;;;;;;;;;5052115;28;20443;-70
2022/05/31 05:12:29;;;;;;;14.00;3.67;;;;;;;;;;5051743;28;20597;-70
2022/05/31 05:14:56;;;;;;;13.53;3.70;;;;;;;;;;5051665;28;20484;-70
2022/05/31 05:17:24;;;;;;;13.47;4.10;;;;;;;;;;5052254;28;20448;-70
2022/05/31 05:19:51;;;;;;;14.10;3.60;;;;;;;;;;5052038;28;20436;-70
2022/05/31 05:22:19;;;;;;;13.90;3.93;;;;;;;;;;5051757;28;20440;-70
2022/05/31 05:24:46;;;;;;;16.57;4.27;;;;;;;;;;5051938;28;20447;-70
2022/05/31 05:27:14;;;;;;;14.80;4.23;;;;;;;;;;5051796;28;20813;-71
2022/05/31 05:32:29;;;;;;;14.10;4.07;;;;;;;;;;5052007;28;20427;-70
2022/05/31 05:34:56;;;;;;;19.00;4.10;;;;;;;;;;5051448;28;20485;-70
2022/05/31 05:37:24;;;;;;;13.60;4.00;;;;;;;;;;5051755;28;20446;-71
2022/05/31 05:39:51;;;;;;;15.50;4.27;;;;;;;;;;5051890;28;20459;-70
2022/05/31 05:42:19;;;;;;;15.43;4.10;;;;;;;;;;5051719;28;20497;-70
2022/05/31 05:44:49;;;;;;;13.50;3.70;;;;;;;;;;5051936;28;20462;-70
2022/05/31 05:47:16;;;;;;;14.43;4.00;;;;;;;;;;5051640;28;20443;-70
2022/05/31 05:49:44;;;;;;;16.30;3.60;;;;;;;;;;5051798;28;20801;-70
2022/05/31 05:52:13;;;;;;;16.17;4.47;;;;;;;;;;5051886;28;20435;-70
2022/05/31 05:54:40;;;;;;;16.43;4.57;;;;;;;;;;5051502;28;20441;-70
2022/05/31 05:57:08;;;;;;;17.93;4.37;;;;;;;;;;5053310;28;20447;-70
2022/05/31 05:59:35;;;;;;;17.10;4.33;;;;;;;;;;5055883;28;20446;-70
2022/05/31 06:02:06;;;;;;;13.80;4.00;;;;;;;;;;5055691;28;20443;-70
2022/05/31 06:04:36;;;;;;;15.33;4.60;;;;;;;;;;5055811;28;20451;-68
2022/05/31 06:07:08;;;;;;;18.13;4.03;;;;;;;;;;5055240;28;20447;-67
2022/05/31 06:09:36;;;;;;;16.30;4.33;;;;;;;;;;5055462;28;20443;-68
2022/05/31 06:12:06;;;;;;;15.50;4.30;;;;;;;;;;5055318;28;20440;-68
2022/05/31 06:14:38;;;;;;;15.43;3.83;;;;;;;;;;5055762;28;21019;-67
2022/05/31 06:17:12;;;;;;;16.77;4.50;;;;;;;;;;5055234;28;20451;-68
2022/05/31 06:19:41;;;;;;;16.23;4.27;;;;;;;;;;5055192;28;20436;-68
2022/05/31 06:22:09;;;;;;;15.57;4.70;;;;;;;;;;5054968;28;20940;-68
2022/05/31 06:24:37;;;;;;;21.83;4.63;;;;;;;;;;5055135;28;20447;-68
2022/05/31 06:27:05;;;;;;;14.63;4.53;;;;;;;;;;5054826;28;20532;-68
2022/05/31 06:29:32;;;;;;;15.67;4.30;;;;;;;;;;5055152;28;20442;-68
2022/05/31 06:32:00;;;;;;;18.37;4.43;;;;;;;;;;5054878;28;20439;-68
2022/05/31 06:34:29;;;;;;;17.00;4.37;;;;;;;;;;5054987;28;20444;-69
2022/05/31 06:37:04;;;;;;;15.30;4.37;;;;;;;;;;5054871;28;20471;-69
2022/05/31 06:39:31;;;;;;;16.53;4.80;;;;;;;;;;5054990;28;20445;-68
2022/05/31 06:41:58;;;;;;;14.93;3.80;;;;;;;;;;5054758;28;20444;-68
2022/05/31 06:44:26;;;;;;;15.40;4.37;;;;;;;;;;5054768;28;20948;-68
2022/05/31 06:46:53;;;;;;;13.73;3.97;;;;;;;;;;5054866;28;20443;-69
2022/05/31 06:49:21;;;;;;;14.50;5.00;;;;;;;;;;5055017;28;20439;-69
2022/05/31 06:57:20;;;;;;;13.87;4.10;;;;;;;;;;5054940;28;20819;-68
2022/05/31 06:59:47;;;;;;;16.87;5.03;;;;;;;;;;5054632;28;20824;-68
2022/05/31 07:02:15;;;;;;;15.97;4.77;;;;;;;;;;5054476;28;20439;-69
2022/05/31 07:04:43;;;;;;;19.17;5.30;;;;;;;;;;5054544;28;20451;-68
2022/05/31 07:07:12;;;;;;;15.00;4.60;;;;;;;;;;5054222;28;20848;-68
2022/05/31 07:09:40;;;;;;;15.97;4.90;;;;;;;;;;5053753;28;20443;-68
2022/05/31 07:12:07;;;;;;;16.90;5.97;;;;;;;;;;5054146;28;20444;-68
2022/05/31 07:14:35;;;;;;;16.80;5.47;;;;;;;;;;5054309;28;20964;-68
2022/05/31 07:17:02;;;;;;;17.47;5.67;;;;;;;;;;5054350;28;20486;-68
2022/05/31 07:19:30;;;;;;;17.70;5.43;;;;;;;;;;5054375;28;20443;-68
2022/05/31 07:21:59;;;;;;;14.83;4.67;;;;;;;;;;5054047;28;20447;-69
2022/05/31 07:24:29;;;;;;;14.40;4.23;;;;;;;;;;5054534;28;20471;-68
2022/05/31 07:26:58;;;;;;;15.10;4.60;;;;;;;;;;5054188;28;20436;-68
2022/05/31 07:29:25;;;;;;;19.23;5.10;;;;;;;;;;5054052;28;20440;-68
2022/05/31 07:31:52;;;;;;;19.13;5.80;;;;;;;;;;5053829;28;20467;-68
2022/05/31 07:34:23;;;;;;;15.97;5.20;;;;;;;;;;5053785;28;20455;-69
2022/05/31 07:36:50;;;;;;;16.43;5.20;;;;;;;;;;5053728;28;20484;-69
2022/05/31 07:39:19;;;;;;;18.33;5.40;;;;;;;;;;5053807;28;20452;-68
2022/05/31 07:41:49;;;;;;;19.37;5.47;;;;;;;;;;5054371;28;20836;-68
2022/05/31 07:44:18;;;;;;;15.60;5.47;;;;;;;;;;5053637;28;20439;-69
2022/05/31 07:46:45;;;;;;;16.57;4.80;;;;;;;;;;5053554;28;20483;-69
2022/05/31 07:49:13;;;;;;;18.43;5.80;;;;;;;;;;5053309;28;20842;-69
2022/05/31 07:51:41;;;;;;;19.23;5.43;;;;;;;;;;5053765;28;20440;-69
2022/05/31 07:54:08;;;;;;;20.63;6.07;;;;;;;;;;5053521;28;20451;-69
2022/05/31 07:56:36;;;;;;;18.50;5.23;;;;;;;;;;5053430;28;20511;-69
2022/05/31 07:59:06;;;;;;;17.37;6.50;;;;;;;;;;5053168;28;20447;-69
2022/05/31 08:01:33;;;;;;;16.23;5.50;;;;;;;;;;5053433;28;20815;-69
2022/05/31 08:04:00;;;;;;;17.53;5.20;;;;;;;;;;5053336;28;20949;-68
2022/05/31 08:06:30;;;;;;;17.07;5.37;;;;;;;;;;5053452;28;20471;-68
2022/05/31 08:08:57;;;;;;;17.17;6.13;;;;;;;;;;5053080;28;20450;-69
2022/05/31 08:11:26;;;;;;;16.43;4.53;;;;;;;;;;5053245;28;20435;-69
2022/05/31 08:13:54;;;;;;;16.67;6.37;;;;;;;;;;5052776;28;20464;-69
2022/05/31 08:16:24;;;;;;;26.23;6.37;;;;;;;;;;5053253;28;20479;-69
2022/05/31 08:18:52;;;;;;;15.67;5.00;;;;;;;;;;5053367;28;20458;-68
2022/05/31 08:21:21;;;;;;;25.93;5.67;;;;;;;;;;5053023;28;20443;-68
2022/05/31 08:23:49;;;;;;;21.03;5.47;;;;;;;;;;5052633;28;20488;-68
2022/05/31 08:26:16;;;;;;;18.03;5.77;;;;;;;;;;5052980;28;20863;-68
2022/05/31 08:28:43;;;;;;;17.23;5.70;;;;;;;;;;5052693;28;20945;-68
2022/05/31 08:31:12;;;;;;;17.10;5.57;;;;;;;;;;5052535;28;20988;-69
2022/05/31 08:33:41;;;;;;;19.43;5.43;;;;;;;;;;5053071;28;20957;-68
2022/05/31 08:36:09;;;;;;;21.67;5.50;;;;;;;;;;5052982;28;20491;-69
2022/05/31 08:38:36;;;;;;;18.90;5.23;;;;;;;;;;5052595;28;20956;-69
2022/05/31 08:41:09;;;;;;;21.43;6.30;;;;;;;;;;5052539;28;20448;-68
2022/05/31 08:43:42;;;;;;;18.03;7.03;;;;;;;;;;5052703;28;20526;-68
2022/05/31 08:46:12;;;;;;;19.80;6.00;;;;;;;;;;5053142;28;20448;-69
2022/05/31 08:48:45;;;;;;;17.27;5.30;;;;;;;;;;5052850;28;20439;-68
2022/05/31 08:56:57;;;;;;;22.10;5.10;;;;;;;;;;5052449;28;20532;-69
2022/05/31 08:59:30;;;;;;;18.07;6.10;;;;;;;;;;5052369;28;20447;-69
2022/05/31 09:02:00;;;;;;;17.47;6.13;;;;;;;;;;5052254;28;20435;-69
2022/05/31 09:04:33;;;;;;;18.50;5.53;;;;;;;;;;5052591;28;20485;-69
2022/05/31 09:07:05;;;;;;;19.03;6.37;;;;;;;;;;5052288;28;20447;-68
2022/05/31 09:09:34;;;;;;;20.23;5.90;;;;;;;;;;5052407;28;20436;-68
2022/05/31 09:12:05;;;;;;;20.20;6.27;;;;;;;;;;5051806;28;20440;-69
2022/05/31 09:14:42;;;;;;;19.33;5.83;;;;;;;;;;5052176;28;20443;-68
2022/05/31 09:17:12;;;;;;;19.30;6.10;;;;;;;;;;5051806;28;20479;-69
2022/05/31 09:19:43;;;;;;;19.10;5.60;;;;;;;;;;5052518;28;20811;-68
2022/05/31 09:22:11;;;;;;;17.27;5.50;;;;;;;;;;5051878;28;20523;-68
2022/05/31 09:24:40;;;;;;;17.70;5.30;;;;;;;;;;5051917;28;20455;-68
2022/05/31 09:27:09;;;;;;;18.50;6.40;;;;;;;;;;5051794;28;20448;-68
2022/05/31 09:29:46;;;;;;;21.23;6.27;;;;;;;;;;5052006;28;20435;-68
2022/05/31 09:32:17;;;;;;;18.50;5.70;;;;;;;;;;5051422;28;20447;-69
2022/05/31 09:35:01;;;;;;;18.93;5.83;;;;;;;;;;5051812;28;20448;-68
2022/05/31 09:37:38;;;;;;;17.60;5.80;;;;;;;;;;5050687;28;20490;-68
2022/05/31 09:40:15;;;;;;;14.60;4.93;;;;;;;;;;5052094;28;20522;-68
2022/05/31 09:42:47;;;;;;;18.10;5.80;;;;;;;;;;5051864;28;20447;-69
2022/05/31 09:45:17;;;;;;;18.20;6.20;;;;;;;;;;5051966;28;20444;-69
2022/05/31 09:47:45;;;;;;;19.73;5.67;;;;;;;;;;5051801;28;20448;-68
2022/05/31 09:50:13;;;;;;;16.43;5.60;;;;;;;;;;5051845;28;20526;-68
2022/05/31 09:52:43;;;;;;;21.03;5.30;;;;;;;;;;5051908;28;20444;-69
2022/05/31 09:58:03;;;;;;;20.17;6.27;;;;;;;;;;5051788;28;20634;-69
2022/05/31 10:00:31;;;;;;;19.80;6.23;;;;;;;;;;5052033;28;20440;-68
2022/05/31 10:03:00;;;;;;;19.13;6.70;;;;;;;;;;5051307;28;20452;-68
2022/05/31 10:05:28;;;;;;;21.87;6.47;;;;;;;;;;5051882;28;20450;-69
2022/05/31 10:07:57;;;;;;;18.87;6.20;;;;;;;;;;5051675;28;20444;-69
2022/05/31 10:10:29;;;;;;;18.90;5.73;;;;;;;;;;5051671;28;20459;-69
2022/05/31 10:12:57;;;;;;;20.30;6.47;;;;;;;;;;5050864;28;20834;-69
2022/05/31 10:15:40;;;;;;;20.37;6.07;;;;;;;;;;5051644;28;20455;-69
2022/05/31 10:18:10;;;;;;;19.13;6.90;;;;;;;;;;5051423;28;20996;-69
2022/05/31 10:20:41;;;;;;;23.70;7.30;;;;;;;;;;5051496;28;20451;-71
2022/05/31 10:23:15;;;;;;;24.10;7.57;;;;;;;;;;5051326;28;20478;-71
2022/05/31 10:25:43;;;;;;;18.70;7.20;;;;;;;;;;5051511;28;20462;-70
2022/05/31 10:28:15;;;;;;;21.33;6.90;;;;;;;;;;5050919;28;20435;-71
2022/05/31 10:30:42;;;;;;;18.43;7.60;;;;;;;;;;5051491;28;20432;-71
2022/05/31 10:33:12;;;;;;;21.90;8.23;;;;;;;;;;5051052;28;20451;-70
2022/05/31 10:35:42;;;;;;;18.90;7.40;;;;;;;;;;5051557;28;20439;-70
2022/05/31 10:38:25;;;;;;;18.83;7.57;;;;;;;;;;5051354;28;20479;-70
2022/05/31 10:40:54;;;;;;;19.70;7.30;;;;;;;;;;5051206;28;20953;-71
2022/05/31 10:43:32;;;;;;;24.53;6.80;;;;;;;;;;5051652;28;20448;-70
2022/05/31 10:46:00;;;;;;;19.83;7.40;;;;;;;;;;5054716;28;20435;-70
2022/05/31 10:48:28;;;;;;;23.17;6.47;;;;;;;;;;5054869;28;20442;-70
2022/05/31 10:51:00;;;;;;;19.60;7.07;;;;;;;;;;5054432;28;20448;-70
2022/05/31 10:53:36;;;;;;;18.80;6.70;;;;;;;;;;5054927;28;20442;-70
2022/05/31 10:56:10;;;;;;;21.17;7.20;;;;;;;;;;5054602;28;20450;-71
2022/05/31 10:58:46;;;;;;;19.50;7.00;;;;;;;;;;5054572;28;20444;-70
2022/05/31 11:01:18;;;;;;;21.23;7.40;;;;;;;;;;5054882;28;20508;-70
2022/05/31 11:03:48;;;;;;;18.00;5.77;;;;;;;;;;5054534;28;20447;-71
2022/05/31 11:06:40;;;;;;;17.60;6.33;;;;;;;;;;5054543;28;20945;-71
2022/05/31 11:12:05;;;;;;;23.10;6.40;;;;;;;;;;5054619;28;20427;-70
2022/05/31 11:14:53;;;;;;;17.77;6.20;;;;;;;;;;5054192;28;20830;-70
2022/05/31 11:17:37;;;;;;;20.53;6.50;;;;;;;;;;5052609;28;20910;-70
2022/05/31 11:20:08;;;;;;;19.60;7.00;;;;;;;;;;5053542;28;20452;-71
2022/05/31 11:22:38;;;;;;;28.93;7.10;;;;;;;;;;5054275;28;20480;-70
2022/05/31 11:25:27;;;;;;;21.10;6.10;;;;;;;;;;5053977;28;20447;-70
2022/05/31 11:27:58;;;;;;;18.80;6.33;;;;;;;;;;5053998;28;20536;-70
2022/05/31 11:30:29;;;;;;;18.73;6.50;;;;;;;;;;5054253;28;20444;-70
2022/05/31 11:33:12;;;;;;;20.33;6.13;;;;;;;;;;5053947;28;20439;-70
2022/05/31 11:35:46;;;;;;;17.90;5.57;;;;;;;;;;5054161;28;20447;-70
2022/05/31 11:38:17;;;;;;;16.80;5.63;;;;;;;;;;5053914;28;20479;-70
2022/05/31 11:40:50;;;;;;;17.20;6.03;;;;;;;;;;5053900;28;20432;-70
2022/05/31 11:43:36;;;;;;;16.30;5.00;;;;;;;;;;5054077;28;20468;-70
2022/05/31 11:46:06;;;;;;;19.73;7.23;;;;;;;;;;5042814;28;20443;-71
2022/05/31 11:48:42;;;;;;;17.50;5.30;;;;;;;;;;5053854;28;20447;-70
2022/05/31 11:51:15;;;;;;;23.70;6.00;;;;;;;;;;5053425;28;20439;-70
2022/05/31 11:54:01;;;;;;;17.27;5.73;;;;;;;;;;5053596;28;20448;-71
2022/05/31 11:56:35;;;;;;;23.60;7.20;;;;;;;;;;5053632;28;20451;-70
2022/05/31 11:59:04;;;;;;;21.00;6.47;;;;;;;;;;5053408;28;20440;-70
2022/05/31 12:01:34;;;;;;;18.30;6.50;;;;;;;;;;5053405;28;20811;-71
2022/05/31 12:04:06;;;;;;;16.70;6.40;;;;;;;;;;5053515;28;20439;-70
2022/05/31 12:06:36;;;;;;;18.80;6.10;;;;;;;;;;5053484;28;20886;-70
2022/05/31 12:09:13;;;;;;;16.77;5.60;;;;;;;;;;5053251;28;20440;-70
2022/05/31 12:11:45;;;;;;;23.33;6.97;;;;;;;;;;5053170;28;20964;-70
2022/05/31 12:14:13;;;;;;;18.40;6.33;;;;;;;;;;5053278;28;20470;-70
2022/05/31 12:16:41;;;;;;;18.17;6.30;;;;;;;;;;5052952;28;20983;-71
2022/05/31 12:19:14;;;;;;;17.07;6.30;;;;;;;;;;5052999;28;20444;-70
2022/05/31 12:21:45;;;;;;;18.60;6.53;;;;;;;;;;5053339;28;20497;-71
2022/05/31 12:24:16;;;;;;;17.90;5.77;;;;;;;;;;5053425;28;20839;-70
2022/05/31 12:26:52;;;;;;;21.87;6.03;;;;;;;;;;5053349;28;20506;-71
2022/05/31 12:29:22;;;;;;;18.40;5.37;;;;;;;;;;5053001;28;20964;-70
2022/05/31 12:31:50;;;;;;;22.70;5.80;;;;;;;;;;5052933;28;20440;-70
2022/05/31 12:34:37;;;;;;;17.07;7.10;;;;;;;;;;5052777;28;20443;-71
2022/05/31 12:37:06;;;;;;;19.17;7.00;;;;;;;;;;5052322;28;20483;-71
2022/05/31 12:39:34;;;;;;;19.80;6.10;;;;;;;;;;5052977;28;20451;-71
2022/05/31 12:42:17;;;;;;;17.37;5.80;;;;;;;;;;5052547;28;21012;-70
2022/05/31 12:44:46;;;;;;;18.93;6.17;;;;;;;;;;5052571;28;20432;-70
2022/05/31 12:47:15;;;;;;;17.80;6.87;;;;;;;;;;5052516;28;20454;-71
2022/05/31 12:49:51;;;;;;;16.67;5.90;;;;;;;;;;5052661;28;20499;-70
2022/05/31 12:55:12;;;;;;;18.03;6.03;;;;;;;;;;5052253;28;20806;-70
2022/05/31 13:00:27;;;;;;;18.03;6.27;;;;;;;;;;5052696;28;20431;-70
2022/05/31 13:02:56;;;;;;;21.80;6.40;;;;;;;;;;5052148;28;20444;-71
2022/05/31 13:05:32;;;;;;;16.17;5.33;;;;;;;;;;5052326;28;20443;-70
2022/05/31 13:08:17;;;;;;;18.37;6.83;;;;;;;;;;5051836;28;20447;-70
2022/05/31 13:21:58;;;;;;;17.53;6.30;;;;;;;;;;5052133;28;20473;-70
2022/05/31 13:24:26;;;;;;;18.87;5.83;;;;;;;;;;5051791;28;20537;-70
2022/05/31 13:26:56;;;;;;;19.40;5.90;;;;;;;;;;5051700;28;20436;-71
2022/05/31 13:29:25;;;;;;;21.93;6.43;;;;;;;;;;5051835;28;20436;-71
2022/05/31 13:31:54;;;;;;;22.03;6.23;;;;;;;;;;5051828;28;20447;-70
2022/05/31 13:34:30;;;;;;;21.00;6.50;;;;;;;;;;5051784;28;20455;-70
2022/05/31 13:36:58;;;;;;;18.30;5.27;;;;;;;;;;5051440;28;20439;-71
2022/05/31 13:39:27;;;;;;;18.47;5.27;;;;;;;;;;5052173;28;20489;-70
2022/05/31 13:41:56;;;;;;;18.27;5.80;;;;;;;;;;5052211;28;20440;-70
2022/05/31 13:44:27;;;;;;;16.60;5.07;;;;;;;;;;5051933;28;20428;-71
2022/05/31 13:46:55;;;;;;;16.70;5.20;;;;;;;;;;5051712;28;20968;-70
2022/05/31 13:49:25;;;;;;;17.73;5.87;;;;;;;;;;5051661;28;20523;-71
2022/05/31 13:51:54;;;;;;;17.40;5.83;;;;;;;;;;5051908;28;20460;-71
2022/05/31 13:54:22;;;;;;;16.13;5.57;;;;;;;;;;5051640;28;20984;-71
2022/05/31 13:56:50;;;;;;;20.50;6.57;;;;;;;;;;5051624;28;20498;-70
2022/05/31 13:59:32;;;;;;;20.70;6.20;;;;;;;;;;5051592;28;20578;-71
2022/05/31 14:02:01;;;;;;;17.30;6.23;;;;;;;;;;5051583;28;20454;-70
2022/05/31 14:04:34;;;;;;;19.43;6.60;;;;;;;;;;5051563;28;20446;-70
2022/05/31 14:07:02;;;;;;;17.80;7.17;;;;;;;;;;5051500;28;20443;-70
2022/05/31 14:09:30;;;;;;;20.37;7.00;;;;;;;;;;5051560;28;20435;-71
2022/05/31 14:11:58;;;;;;;22.73;7.83;;;;;;;;;;5051450;28;20447;-71
2022/05/31 14:14:28;;;;;;;20.93;6.60;;;;;;;;;;5051505;28;20466;-71
2022/05/31 14:16:58;;;;;;;18.03;6.83;;;;;;;;;;5051429;28;20517;-71
2022/05/31 14:19:26;;;;;;;19.10;6.90;;;;;;;;;;5056111;28;20494;-71
2022/05/31 14:21:55;;;;;;;20.20;7.40;;;;;;;;;;5055468;28;20467;-70
2022/05/31 14:24:23;;;;;;;18.70;6.50;;;;;;;;;;5055267;28;20479;-70
2022/05/31 14:26:51;;;;;;;20.57;7.40;;;;;;;;;;5055130;28;20447;-71
2022/05/31 14:29:27;;;;;;;25.40;6.97;;;;;;;;;;5055625;28;20447;-71
2022/05/31 14:32:15;;;;;;;20.10;6.97;;;;;;;;;;5055543;28;20447;-71
2022/05/31 14:34:44;;;;;;;19.23;6.73;;;;;;;;;;5055735;28;20427;-71
2022/05/31 14:37:12;;;;;;;16.53;6.60;;;;;;;;;;5054621;28;20444;-70
2022/05/31 14:39:47;;;;;;;23.90;6.87;;;;;;;;;;5054988;28;20435;-71
2022/05/31 14:42:17;;;;;;;19.87;6.17;;;;;;;;;;5054905;28;20446;-70
2022/05/31 14:44:47;;;;;;;17.97;6.27;;;;;;;;;;5054971;28;20940;-71
2022/05/31 14:47:30;;;;;;;19.50;6.00;;;;;;;;;;5054555;28;20451;-70
2022/05/31 14:50:12;;;;;;;18.97;6.63;;;;;;;;;;5054952;28;20435;-70
2022/05/31 14:52:47;;;;;;;19.50;6.20;;;;;;;;;;5054814;28;20964;-71
2022/05/31 14:55:17;;;;;;;17.40;6.00;;;;;;;;;;5054625;28;20820;-70
2022/05/31 15:00:36;;;;;;;18.27;5.80;;;;;;;;;;5054626;28;20916;-70
2022/05/31 15:03:08;;;;;;;15.60;5.50;;;;;;;;;;5054640;28;20432;-70
2022/05/31 15:05:35;;;;;;;22.30;6.00;;;;;;;;;;5054526;28;20456;-70
2022/05/31 15:08:02;;;;;;;18.30;6.43;;;;;;;;;;5054572;28;20451;-71
2022/05/31 15:10:33;;;;;;;15.53;6.00;;;;;;;;;;5054283;28;20957;-71
2022/05/31 15:18:59;;;;;;;16.53;5.73;;;;;;;;;;5054131;28;20567;-71
2022/05/31 15:21:27;;;;;;;16.50;6.13;;;;;;;;;;5054194;28;20455;-71
2022/05/31 15:23:55;;;;;;;20.30;6.40;;;;;;;;;;5054013;28;20494;-71
2022/05/31 15:26:23;;;;;;;25.23;6.77;;;;;;;;;;5054075;28;20446;-70
2022/05/31 15:28:50;;;;;;;16.87;6.33;;;;;;;;;;5053715;28;20831;-70
2022/05/31 15:31:31;;;;;;;17.40;5.80;;;;;;;;;;5053865;28;20444;-71
2022/05/31 15:34:01;;;;;;;18.30;6.33;;;;;;;;;;5053904;28;20444;-70
2022/05/31 15:36:29;;;;;;;21.63;6.00;;;;;;;;;;5053856;28;20945;-71
2022/05/31 15:38:58;;;;;;;18.27;6.00;;;;;;;;;;5053895;28;20491;-71